Stolt Ami — 3EAZ5 — position and weather

sailwx.info

Track history (hours):
 
Tides and Currents Weather Stations Pressure Air Temp Water Temp Dewpoint Dewpoint Depression Visibility Wind Speed Wind Dir Waves Ship Positions

Stolt Ami

Last reported at 2015-Mar-03 22:26 UTC. Time now 2015-Mar-04 07:02 UTC.
Position N 29°21' W 094°47'.

Length 143 m; draft 7.7 m.

Type: Ship (hazmat cat C). MMSI: 371392514.

Date/timePositionNaut miles runAvg speedWind from/ knotsBaromVisibWave heightAir tempDewpointWater temp
2015-Mar-03 22:26N 29°21' W 094°47'9 9.8
2015-Mar-03 21:33N 29°29' W 094°52'1110.9
2015-Mar-03 20:33N 29°38' W 094°58'9 8.6
2015-Mar-03 19:33N 29°45' W 095°04'3 3.4
2015-Mar-03 18:33N 29°44' W 095°08'0 0.0
2015-Mar-03 17:24N 29°44' W 095°08'0 0.0
2015-Mar-03 16:21N 29°44' W 095°08'0 0.0
2015-Mar-03 15:33N 29°44' W 095°08'0 0.0
2015-Mar-03 14:27N 29°44' W 095°08'0 0.0
2015-Mar-03 13:24N 29°44' W 095°08'0 0.0
2015-Mar-03 11:24N 29°44' W 095°08'0 0.0
2015-Mar-03 10:24N 29°44' W 095°08'0 0.0
2015-Mar-03 08:30N 29°44' W 095°08'0 0.0
2015-Mar-03 07:24N 29°44' W 095°08'0 0.0
2015-Mar-03 06:18N 29°44' W 095°08'0 0.0
2015-Mar-03 05:30N 29°44' W 095°08'0 0.0
2015-Mar-03 04:15N 29°44' W 095°08'0 0.0
2015-Mar-02 22:21N 29°44' W 095°08'0 0.0
2015-Mar-02 21:21N 29°44' W 095°08'0 0.0
2015-Mar-02 16:33N 29°44' W 095°08'0 0.0
2015-Mar-02 14:33N 29°44' W 095°08'1 0.1
2015-Mar-01 23:33N 29°44' W 095°09'6 5.7
2015-Mar-01 22:32N 29°44' W 095°16'1 0.0
2015-Feb-28 04:23N 29°44' W 095°17'3 4.0
2015-Feb-28 03:33N 29°44' W 095°13'5 5.1
2015-Feb-28 02:34N 29°44' W 095°07'1 1.3
2015-Feb-28 01:33N 29°45' W 095°06'0 0.0
2015-Feb-28 00:33N 29°45' W 095°06'0 0.0
2015-Feb-27 23:33N 29°45' W 095°06'0 0.0
2015-Feb-27 22:33N 29°45' W 095°06'0 0.0
2015-Feb-27 21:33N 29°45' W 095°06'0 0.0
2015-Feb-27 20:33N 29°45' W 095°06'0 0.0
2015-Feb-27 19:27N 29°45' W 095°06'0 0.0
2015-Feb-27 18:33N 29°45' W 095°06'0 0.0
2015-Feb-27 17:33N 29°45' W 095°06'0 0.0
2015-Feb-27 16:30N 29°45' W 095°06'0 0.0
2015-Feb-27 15:33N 29°45' W 095°06'0 0.0
2015-Feb-27 14:30N 29°45' W 095°06'0 0.0
2015-Feb-27 13:30N 29°45' W 095°06'0 0.0
2015-Feb-27 12:30N 29°45' W 095°06'0 0.0
2015-Feb-27 11:33N 29°45' W 095°06'0 0.0
2015-Feb-27 10:30N 29°45' W 095°06'0 0.0
2015-Feb-27 09:33N 29°45' W 095°06'0 0.0
2015-Feb-27 08:33N 29°45' W 095°06'0 0.0
2015-Feb-27 07:33N 29°45' W 095°06'0 0.0
2015-Feb-27 06:30N 29°45' W 095°06'0 0.0
2015-Feb-27 05:33N 29°45' W 095°06'0 0.0
2015-Feb-27 04:33N 29°45' W 095°06'0 0.0
2015-Feb-27 03:27N 29°45' W 095°06'0 0.0
2015-Feb-27 02:33N 29°45' W 095°06'0 0.0
2015-Feb-27 01:33N 29°45' W 095°06'0 0.0
2015-Feb-27 00:27N 29°45' W 095°06'0 0.0
2015-Feb-26 23:33N 29°45' W 095°06'0 0.0
2015-Feb-26 22:33N 29°45' W 095°06'0 0.0
2015-Feb-26 21:33N 29°45' W 095°06'5 4.6
2015-Feb-26 20:33N 29°43' W 095°01'1111.4
2015-Feb-26 19:33N 29°33' W 094°55'14 0.6
2015-Feb-25 20:18N 29°21' W 094°47'811.3
2015-Feb-25 19:33N 29°28' W 094°51'1111.5
2015-Feb-25 18:34N 29°38' W 094°58'10 9.6
2015-Feb-25 17:33N 29°46' W 095°05'2 0.7
2015-Feb-25 15:26N 29°45' W 095°06'0 0.0
2015-Feb-25 14:20N 29°45' W 095°06'0 0.0
2015-Feb-25 08:05N 29°45' W 095°06'0 0.0
2015-Feb-25 07:29N 29°45' W 095°06'0 0.0
2015-Feb-25 01:26N 29°45' W 095°06'0 0.0
2015-Feb-25 00:23N 29°45' W 095°06'0 0.0
2015-Feb-24 23:32N 29°45' W 095°06'0 0.0
2015-Feb-24 22:26N 29°45' W 095°06'0 0.0
2015-Feb-24 21:32N 29°45' W 095°06'0 0.0
2015-Feb-24 20:29N 29°45' W 095°06'0 0.0
2015-Feb-24 19:32N 29°45' W 095°06'0 0.0
2015-Feb-24 18:32N 29°45' W 095°06'0 0.0
2015-Feb-24 17:32N 29°45' W 095°06'0 0.0
2015-Feb-24 16:32N 29°45' W 095°06'0 0.0
2015-Feb-24 15:20N 29°45' W 095°06'0 0.0
2015-Feb-24 14:26N 29°45' W 095°06'0 0.0
2015-Feb-24 13:32N 29°45' W 095°06'0 0.0
2015-Feb-24 12:32N 29°45' W 095°06'0 0.0
2015-Feb-24 11:32N 29°45' W 095°06'0 0.0
2015-Feb-24 10:32N 29°45' W 095°06'0 0.0
2015-Feb-24 09:32N 29°45' W 095°06'0 0.0
2015-Feb-24 08:32N 29°45' W 095°06'0 0.0
2015-Feb-24 07:32N 29°45' W 095°06'0 0.0
2015-Feb-24 06:32N 29°45' W 095°06'0 0.0
2015-Feb-24 05:32N 29°45' W 095°06'0 0.0
2015-Feb-24 04:32N 29°45' W 095°06'0 0.0
2015-Feb-24 03:32N 29°45' W 095°06'0 0.0
2015-Feb-24 02:32N 29°45' W 095°06'1 1.2
2015-Feb-24 01:33N 29°46' W 095°05'7 7.0
2015-Feb-24 00:33N 29°41' W 094°59'1010.1
2015-Feb-23 23:33N 29°32' W 094°54'1110.9
2015-Feb-23 22:33N 29°23' W 094°48'  
Track history (hours):
 
Tides and Currents Weather Stations Pressure Air Temp Water Temp Dewpoint Dewpoint Depression Visibility Wind Speed Wind Dir Waves Ship Positions

Stolt Ami

Last reported at 2015-Mar-03 22:26 UTC. Time now 2015-Mar-04 07:02 UTC.
Position N 29°21' W 094°47'.

Length 143 m; draft 7.7 m.

Type: Ship (hazmat cat C). MMSI: 371392514.

Date/timePositionNaut miles runAvg speedWind from/ knotsBaromVisibWave heightAir tempDewpointWater temp
2015-Mar-03 22:26N 29°21' W 094°47'9 9.8
2015-Mar-03 21:33N 29°29' W 094°52'1110.9
2015-Mar-03 20:33N 29°38' W 094°58'9 8.6
2015-Mar-03 19:33N 29°45' W 095°04'3 3.4
2015-Mar-03 18:33N 29°44' W 095°08'0 0.0
2015-Mar-03 17:24N 29°44' W 095°08'0 0.0
2015-Mar-03 16:21N 29°44' W 095°08'0 0.0
2015-Mar-03 15:33N 29°44' W 095°08'0 0.0
2015-Mar-03 14:27N 29°44' W 095°08'0 0.0
2015-Mar-03 13:24N 29°44' W 095°08'0 0.0
2015-Mar-03 11:24N 29°44' W 095°08'0 0.0
2015-Mar-03 10:24N 29°44' W 095°08'0 0.0
2015-Mar-03 08:30N 29°44' W 095°08'0 0.0
2015-Mar-03 07:24N 29°44' W 095°08'0 0.0
2015-Mar-03 06:18N 29°44' W 095°08'0 0.0
2015-Mar-03 05:30N 29°44' W 095°08'0 0.0
2015-Mar-03 04:15N 29°44' W 095°08'0 0.0
2015-Mar-02 22:21N 29°44' W 095°08'0 0.0
2015-Mar-02 21:21N 29°44' W 095°08'0 0.0
2015-Mar-02 16:33N 29°44' W 095°08'0 0.0
2015-Mar-02 14:33N 29°44' W 095°08'1 0.1
2015-Mar-01 23:33N 29°44' W 095°09'6 5.7
2015-Mar-01 22:32N 29°44' W 095°16'1 0.0
2015-Feb-28 04:23N 29°44' W 095°17'3 4.0
2015-Feb-28 03:33N 29°44' W 095°13'5 5.1
2015-Feb-28 02:34N 29°44' W 095°07'1 1.3
2015-Feb-28 01:33N 29°45' W 095°06'0 0.0
2015-Feb-28 00:33N 29°45' W 095°06'0 0.0
2015-Feb-27 23:33N 29°45' W 095°06'0 0.0
2015-Feb-27 22:33N 29°45' W 095°06'0 0.0
2015-Feb-27 21:33N 29°45' W 095°06'0 0.0
2015-Feb-27 20:33N 29°45' W 095°06'0 0.0
2015-Feb-27 19:27N 29°45' W 095°06'0 0.0
2015-Feb-27 18:33N 29°45' W 095°06'0 0.0
2015-Feb-27 17:33N 29°45' W 095°06'0 0.0
2015-Feb-27 16:30N 29°45' W 095°06'0 0.0
2015-Feb-27 15:33N 29°45' W 095°06'0 0.0
2015-Feb-27 14:30N 29°45' W 095°06'0 0.0
2015-Feb-27 13:30N 29°45' W 095°06'0 0.0
2015-Feb-27 12:30N 29°45' W 095°06'0 0.0
2015-Feb-27 11:33N 29°45' W 095°06'0 0.0
2015-Feb-27 10:30N 29°45' W 095°06'0 0.0
2015-Feb-27 09:33N 29°45' W 095°06'0 0.0
2015-Feb-27 08:33N 29°45' W 095°06'0 0.0
2015-Feb-27 07:33N 29°45' W 095°06'0 0.0
2015-Feb-27 06:30N 29°45' W 095°06'0 0.0
2015-Feb-27 05:33N 29°45' W 095°06'0 0.0
2015-Feb-27 04:33N 29°45' W 095°06'0 0.0
2015-Feb-27 03:27N 29°45' W 095°06'0 0.0
2015-Feb-27 02:33N 29°45' W 095°06'0 0.0
2015-Feb-27 01:33N 29°45' W 095°06'0 0.0
2015-Feb-27 00:27N 29°45' W 095°06'0 0.0
2015-Feb-26 23:33N 29°45' W 095°06'0 0.0
2015-Feb-26 22:33N 29°45' W 095°06'0 0.0
2015-Feb-26 21:33N 29°45' W 095°06'5 4.6
2015-Feb-26 20:33N 29°43' W 095°01'1111.4
2015-Feb-26 19:33N 29°33' W 094°55'14 0.6
2015-Feb-25 20:18N 29°21' W 094°47'811.3
2015-Feb-25 19:33N 29°28' W 094°51'1111.5
2015-Feb-25 18:34N 29°38' W 094°58'10 9.6
2015-Feb-25 17:33N 29°46' W 095°05'2 0.7
2015-Feb-25 15:26N 29°45' W 095°06'0 0.0
2015-Feb-25 14:20N 29°45' W 095°06'0 0.0
2015-Feb-25 08:05N 29°45' W 095°06'0 0.0
2015-Feb-25 07:29N 29°45' W 095°06'0 0.0
2015-Feb-25 01:26N 29°45' W 095°06'0 0.0
2015-Feb-25 00:23N 29°45' W 095°06'0 0.0
2015-Feb-24 23:32N 29°45' W 095°06'0 0.0
2015-Feb-24 22:26N 29°45' W 095°06'0 0.0
2015-Feb-24 21:32N 29°45' W 095°06'0 0.0
2015-Feb-24 20:29N 29°45' W 095°06'0 0.0
2015-Feb-24 19:32N 29°45' W 095°06'0 0.0
2015-Feb-24 18:32N 29°45' W 095°06'0 0.0
2015-Feb-24 17:32N 29°45' W 095°06'0 0.0
2015-Feb-24 16:32N 29°45' W 095°06'0 0.0
2015-Feb-24 15:20N 29°45' W 095°06'0 0.0
2015-Feb-24 14:26N 29°45' W 095°06'0 0.0
2015-Feb-24 13:32N 29°45' W 095°06'0 0.0
2015-Feb-24 12:32N 29°45' W 095°06'0 0.0
2015-Feb-24 11:32N 29°45' W 095°06'0 0.0
2015-Feb-24 10:32N 29°45' W 095°06'0 0.0
2015-Feb-24 09:32N 29°45' W 095°06'0 0.0
2015-Feb-24 08:32N 29°45' W 095°06'0 0.0
2015-Feb-24 07:32N 29°45' W 095°06'0 0.0
2015-Feb-24 06:32N 29°45' W 095°06'0 0.0
2015-Feb-24 05:32N 29°45' W 095°06'0 0.0
2015-Feb-24 04:32N 29°45' W 095°06'0 0.0
2015-Feb-24 03:32N 29°45' W 095°06'0 0.0
2015-Feb-24 02:32N 29°45' W 095°06'1 1.2
2015-Feb-24 01:33N 29°46' W 095°05'7 7.0
2015-Feb-24 00:33N 29°41' W 094°59'1010.1
2015-Feb-23 23:33N 29°32' W 094°54'1110.9
2015-Feb-23 22:33N 29°23' W 094°48'  

Dump ship's entire track history